Jucas, Brazil
Current Conditions -  °F | °C
As of 12:00 PM on Friday 31 Oct 2014 (Local Time) from SBJU Reporting Station
Scattered Clouds Scattered Clouds  
Wind Chill: 93°   Ceiling: Unl
Heat Index: 93°   Visibility: 6mi
Dew Point: 61°   Wind: 8mph
Humidity: 34%   Direction: 190°S
Pressure: 30"   Gusts: NA
Location:  6.53°S, 39.53°W
Report Text: SBJU 311500Z 19007KT 9999 SCT022 34/16 Q1016
Loading
Personal Weather Stations






























Interactive Weather Map
Tropical Storm Tracking
New forecast layout! Learn more

10-Day Weather Forecast

Advertisements
Track Severe Weather on mobile